Washington, Louisiana
Current Conditions -  °F | °C
As of 4:55 PM on Thursday 23 Oct 2014 (Local Time) from KOPL Reporting Station
Clear Clear  
Wind Chill: 69°   Ceiling: Unl
Heat Index: 69°   Visibility: 10mi
Dew Point: 53°   Wind: 7mph
Humidity: 57%   Direction: 10°N
Pressure: 30.06"   Gusts: NA
Location:  30.62°N, 92.06°W
Report Text: KOPL 232155Z AUTO 01006KT 10SM CLR 20/11 A3006 RMK AO2 T02030114
Loading
Personal Weather Stations






























Interactive Weather Map
Tropical Storm Tracking
New forecast layout! Learn more

10-Day Weather Forecast

Advertisements
Track Severe Weather on mobile